الصفحة الرئيسية
METAR-TAF:

METAR-TAF

مطار :

مطار سير سيووساغور رامغولام الدولي

موريشيوس, موريشيوس

دائرة عرض: 20-26S, خط طول: 057-40E, ارتفاع: 55 متر

مراقبة الطقس الحالي

تاريخ ووقت الإصدار 41 دقيقة قبل الساعة 22:00UTC
ريح 10 عقدة من الشرق
درجة الحرارة 24°درجة مئوية
الرطوبة 69%
ضغط 1022 hPa
الرؤية 10 كم أو أكثر
غيوم قليلة على ارتفاع 1700 قدم
غيوم مفككة على ارتفاع 5000 قدم

METAR: FIMP 222200Z 10010KT 9999 FEW017 BKN050 24/18 Q1022

زمن: 02:41 (22:41 UTC)

توقعات

تاريخ ووقت الإصدار 5ساعات و 31 دقيقة قبل الساعة 17:10UTC
التوقعات صالحة من22 الساعة 18 UTC إلى 24 الساعة 00 UTC
ريح 10 عقدة من الشرق
الرؤية 10 كم أو أكثر
غيوم متفرقة على ارتفاع 1600 قدم
نظرية الاحتمالات 30% :
مؤقت
من 22 الساعة 18 UTC إلى 23 الساعة 06 UTC
الرؤية: 7000 متر
غيوم قليلة على ارتفاع 1000 قدم
غيوم مفككة على ارتفاع 1400 قدم
غيوم مفككة على ارتفاع 5000 قدم
زخات من الأمطار الخفيفة

TAF: FIMP 221710Z 2218/2400 10010KT 9999 SCT016 PROB30 TEMPO 2218/2306 7000 -SHRA FEW010 BKN014 BKN050

أرصاد الطقس والتوقعات من أكثر من 4000 مطار (تقارير الطقس للمطار METAR والتنبؤ بالطقس بالمطارTAF).

المحطات المتاحة هي النقط الصفراء والحمراء على الخريطة.

حرك المؤشر فوق النقطة لمعرفة اسم المحطة.

ثم انقر لمعرفة أرصاد وتوقعات الطقس.

لتغيير الخارطة: اضغط على الأزرار الخضراء مع رمز الصليب الأسود للتكبير. على الزر الأخضر مع شرطة للتصغير، أو على الأسهم الخضراء للخرائط المجاورة.


METAR-TAF: